Abraham, Utah
Current Conditions -  °F | °C
As of 3:55 PM on Thursday 20 Nov 2014 (Local Time) from KDTA Reporting Station
Clear Clear  
Wind Chill: 52°   Ceiling: Unl
Heat Index: 52°   Visibility: 10mi
Dew Point: 14°   Wind: 0mph
Humidity: 22%   Direction: NA
Pressure: 30.03"   Gusts: NA
Location:  39.4463°N, 112.85°W
Report Text: KDTA 202255Z AUTO 00000KT 10SM CLR 11/M10 A3003 RMK AO1 T01101102
Loading
Personal Weather Stations






























Interactive Weather Map New forecast layout! Learn more

10-Day Weather Forecast

Advertisements
Track Severe Weather on mobile